createdAt,value
2018-09-25T00:02:17.001Z,71.39
2018-09-25T00:05:25.956Z,71.24
2018-09-25T00:08:34.785Z,71.35
2018-09-25T00:11:43.669Z,71.99
2018-09-25T00:14:53.529Z,72.99
2018-09-25T00:18:02.420Z,72.90
2018-09-25T00:21:14.674Z,72.92
2018-09-25T00:24:23.637Z,73.91
2018-09-25T00:27:32.540Z,73.87
2018-09-25T00:30:41.362Z,74.19
2018-09-25T00:33:50.091Z,74.44
2018-09-25T00:36:58.806Z,74.51
2018-09-25T00:40:07.666Z,74.45
2018-09-25T00:43:16.800Z,73.98
2018-09-25T00:46:25.510Z,74.51
2018-09-25T00:49:34.429Z,75.37
2018-09-25T00:52:43.415Z,75.32
2018-09-25T00:55:52.345Z,75.21
2018-09-25T00:59:01.069Z,75.30
2018-09-25T01:02:09.982Z,74.93
2018-09-25T01:05:18.880Z,74.41
2018-09-25T01:08:28.359Z,74.00
2018-09-25T01:11:37.321Z,74.41
2018-09-25T01:14:45.941Z,74.72
2018-09-25T01:17:55.009Z,74.68
2018-09-25T01:21:03.629Z,75.20
2018-09-25T01:24:12.355Z,75.44
2018-09-25T01:27:21.118Z,75.37
2018-09-25T01:30:29.926Z,74.75
2018-09-25T01:33:38.875Z,75.23
2018-09-25T01:36:52.650Z,74.72
2018-09-25T01:40:01.607Z,74.23
2018-09-25T01:43:10.440Z,74.45
2018-09-25T01:46:19.265Z,75.41
2018-09-25T01:49:28.116Z,75.12
2018-09-25T01:52:36.949Z,74.78
2018-09-25T01:55:45.767Z,75.16
2018-09-25T01:58:54.674Z,75.20
2018-09-25T02:02:03.549Z,75.08
2018-09-25T02:05:13.474Z,74.82
2018-09-25T02:08:22.244Z,75.00
2018-09-25T02:11:31.188Z,75.48
2018-09-25T02:14:39.978Z,75.84
2018-09-25T02:17:48.894Z,75.40
2018-09-25T02:20:57.773Z,75.14
2018-09-25T02:24:06.645Z,75.29
2018-09-25T02:27:15.586Z,74.93
2018-09-25T02:30:24.497Z,75.13
2018-09-25T02:33:33.495Z,75.45
2018-09-25T02:36:42.362Z,75.71
2018-09-25T02:39:50.989Z,75.88
2018-09-25T02:42:59.807Z,76.33
2018-09-25T02:46:08.671Z,75.92
2018-09-25T02:49:17.363Z,76.00
2018-09-25T02:52:26.251Z,75.52
2018-09-25T02:55:35.150Z,75.44
2018-09-25T02:58:43.978Z,76.41
2018-09-25T03:01:52.829Z,76.46
2018-09-25T03:05:01.499Z,77.01
2018-09-25T03:08:10.379Z,76.23
2018-09-25T03:11:19.188Z,75.86
2018-09-25T03:14:27.853Z,76.17
2018-09-25T03:17:36.778Z,76.05
2018-09-25T03:20:46.617Z,75.98
2018-09-25T03:23:55.433Z,75.91
2018-09-25T03:27:04.222Z,76.26
2018-09-25T03:30:13.150Z,76.21
2018-09-25T03:33:22.009Z,76.10
2018-09-25T03:36:30.628Z,76.01
2018-09-25T03:39:39.566Z,76.68
2018-09-25T03:42:48.422Z,76.87
2018-09-25T03:45:57.337Z,76.92
2018-09-25T03:49:06.358Z,76.93
2018-09-25T03:52:15.214Z,75.89
2018-09-25T03:55:24.318Z,76.40
2018-09-25T03:58:33.023Z,76.89
2018-09-25T04:01:42.197Z,77.10
2018-09-25T04:04:51.090Z,76.89
2018-09-25T04:07:59.764Z,76.52
2018-09-25T04:11:08.665Z,76.78
2018-09-25T04:14:17.565Z,77.09
2018-09-25T04:17:26.408Z,76.93
2018-09-25T04:20:35.257Z,76.83
2018-09-25T04:23:44.099Z,76.69
2018-09-25T04:26:53.009Z,76.87
2018-09-25T04:30:01.913Z,76.67
2018-09-25T04:33:11.000Z,76.76
2018-09-25T04:36:19.842Z,76.47
2018-09-25T04:39:29.732Z,76.63
2018-09-25T04:42:38.553Z,76.42
2018-09-25T04:45:47.171Z,76.89
2018-09-25T04:48:56.246Z,77.41
2018-09-25T04:52:05.073Z,77.31
2018-09-25T04:55:13.911Z,77.04
2018-09-25T04:58:22.792Z,76.75
2018-09-25T05:01:31.632Z,77.12
2018-09-25T05:04:40.480Z,77.37
2018-09-25T05:07:49.413Z,77.79
2018-09-25T05:10:58.254Z,77.43
2018-09-25T05:14:07.046Z,76.91
2018-09-25T05:17:19.868Z,77.32
2018-09-25T05:20:28.622Z,76.73
2018-09-25T05:23:43.603Z,77.12
2018-09-25T05:26:52.340Z,77.92
2018-09-25T05:30:01.223Z,79.22
2018-09-25T05:33:10.040Z,78.58
2018-09-25T05:36:19.942Z,78.08
2018-09-25T05:39:28.836Z,78.93
2018-09-25T05:42:37.653Z,78.38
2018-09-25T05:45:46.373Z,78.49
2018-09-25T05:48:55.007Z,78.56
2018-09-25T05:52:03.722Z,77.76
2018-09-25T05:55:12.549Z,77.69
2018-09-25T05:58:22.183Z,77.65
2018-09-25T06:01:30.813Z,77.47
2018-09-25T06:04:39.665Z,78.11
2018-09-25T06:07:49.613Z,78.36
2018-09-25T06:10:58.373Z,77.96
2018-09-25T06:14:07.215Z,78.24
2018-09-25T06:17:16.103Z,78.27
2018-09-25T06:20:25.027Z,77.60
2018-09-25T06:23:33.867Z,77.40
2018-09-25T06:26:42.822Z,77.01
2018-09-25T06:29:51.638Z,77.02
2018-09-25T06:33:00.292Z,77.36
2018-09-25T06:36:09.189Z,76.60
2018-09-25T06:39:18.018Z,75.62
2018-09-25T06:42:26.956Z,75.90
2018-09-25T06:45:35.976Z,75.98
2018-09-25T06:48:44.873Z,74.95
2018-09-25T06:51:53.932Z,75.04
2018-09-25T06:55:02.716Z,74.53
2018-09-25T06:58:11.571Z,74.53
2018-09-25T07:01:20.448Z,74.26
2018-09-25T07:04:29.281Z,73.97
2018-09-25T07:07:38.120Z,73.48
2018-09-25T07:10:47.038Z,72.55
2018-09-25T07:13:55.901Z,72.95
2018-09-25T07:17:04.639Z,72.61
2018-09-25T07:20:13.340Z,71.97
2018-09-25T07:23:22.245Z,71.50
2018-09-25T07:26:31.131Z,71.35
2018-09-25T07:29:39.959Z,70.22
2018-09-25T07:32:48.758Z,69.65
2018-09-25T07:35:57.579Z,69.18
2018-09-25T07:39:06.168Z,68.39
2018-09-25T07:42:15.154Z,68.27
2018-09-25T07:45:23.864Z,67.49
2018-09-25T07:48:32.723Z,68.40
2018-09-25T07:51:41.428Z,66.93
2018-09-25T07:54:50.161Z,66.47
2018-09-25T07:57:59.002Z,65.80
2018-09-25T08:01:07.922Z,65.22
2018-09-25T08:04:16.586Z,64.27
2018-09-25T08:07:25.465Z,64.58
2018-09-25T08:10:34.236Z,64.09
2018-09-25T08:13:42.882Z,63.41
2018-09-25T08:16:51.627Z,63.51
2018-09-25T08:20:00.236Z,63.23
2018-09-25T08:23:09.094Z,62.84
2018-09-25T08:26:17.870Z,63.38
2018-09-25T08:29:26.728Z,61.99
2018-09-25T08:32:35.485Z,62.50
2018-09-25T08:35:44.305Z,62.56
2018-09-25T08:38:53.292Z,63.27
2018-09-25T08:42:01.876Z,61.28
2018-09-25T08:45:11.053Z,60.71
2018-09-25T08:48:19.914Z,60.79
2018-09-25T08:51:28.569Z,59.48
2018-09-25T08:54:37.466Z,58.35
2018-09-25T08:57:46.173Z,59.11
2018-09-25T09:00:54.748Z,57.32
2018-09-25T09:04:03.446Z,56.30
2018-09-25T09:07:12.285Z,53.99
2018-09-25T09:10:20.997Z,53.90
2018-09-25T09:13:29.744Z,52.09
2018-09-25T09:16:38.646Z,51.13
2018-09-25T09:19:47.267Z,51.46
2018-09-25T09:22:56.085Z,51.23
2018-09-25T09:26:04.835Z,49.19
2018-09-25T09:29:13.868Z,50.36
2018-09-25T09:32:22.544Z,48.54
2018-09-25T09:35:31.320Z,48.68
2018-09-25T09:38:40.030Z,49.28
2018-09-25T09:41:49.066Z,48.04
2018-09-25T09:44:57.485Z,48.64
2018-09-25T09:48:06.259Z,47.94
2018-09-25T09:51:15.435Z,48.55
2018-09-25T09:54:24.260Z,47.98
2018-09-25T09:57:33.099Z,48.37
2018-09-25T10:00:41.815Z,47.21
2018-09-25T10:03:50.606Z,46.64
2018-09-25T10:06:59.369Z,46.07
2018-09-25T10:10:08.077Z,44.63
2018-09-25T10:13:16.897Z,43.39
2018-09-25T10:16:25.489Z,42.67
2018-09-25T10:19:34.675Z,44.53
2018-09-25T10:22:43.715Z,45.14
2018-09-25T10:25:53.015Z,45.02
2018-09-25T10:29:01.920Z,44.74
2018-09-25T10:32:10.704Z,42.95
2018-09-25T10:35:19.628Z,43.10
2018-09-25T10:38:28.472Z,44.09
2018-09-25T10:41:37.285Z,44.53
2018-09-25T10:44:46.123Z,43.81
2018-09-25T10:47:54.812Z,44.27
2018-09-25T10:51:03.690Z,42.46
2018-09-25T10:54:12.759Z,42.04
2018-09-25T10:57:21.525Z,42.41
2018-09-25T11:00:30.356Z,41.01
2018-09-25T11:03:39.004Z,40.83
2018-09-25T11:06:47.878Z,40.55
2018-09-25T11:09:56.618Z,39.20
2018-09-25T11:13:05.478Z,38.91
2018-09-25T11:16:14.096Z,38.35
2018-09-25T11:19:23.073Z,38.41
2018-09-25T11:22:31.960Z,37.54
2018-09-25T11:25:40.716Z,37.28
2018-09-25T11:28:49.612Z,36.96
2018-09-25T11:31:58.500Z,37.06
2018-09-25T11:35:08.358Z,36.53
2018-09-25T11:38:17.017Z,36.68
2018-09-25T11:41:25.915Z,36.74
2018-09-25T11:44:34.605Z,36.61
2018-09-25T11:47:44.375Z,36.41
2018-09-25T11:50:53.347Z,38.18
2018-09-25T11:54:02.325Z,38.13
2018-09-25T11:57:11.180Z,37.71
2018-09-25T12:00:19.785Z,36.95
2018-09-25T12:03:28.485Z,36.24
2018-09-25T12:06:37.451Z,37.52
2018-09-25T12:09:47.083Z,35.77
2018-09-25T12:12:56.036Z,35.36
2018-09-25T12:16:04.728Z,35.83
2018-09-25T12:19:13.568Z,35.12
2018-09-25T12:22:22.116Z,35.45
2018-09-25T12:25:31.042Z,35.60
2018-09-25T12:28:39.973Z,34.70
2018-09-25T12:31:48.888Z,35.32
2018-09-25T12:34:57.631Z,35.04
2018-09-25T12:38:06.475Z,36.29
2018-09-25T12:41:15.298Z,35.12
2018-09-25T12:44:23.870Z,35.29
2018-09-25T12:47:32.461Z,35.02
2018-09-25T12:50:41.252Z,35.67
2018-09-25T12:53:49.914Z,35.58
2018-09-25T12:56:58.802Z,34.34
2018-09-25T13:00:07.592Z,34.94
2018-09-25T13:03:16.208Z,34.12
2018-09-25T13:06:25.052Z,34.43
2018-09-25T13:09:33.801Z,34.42
2018-09-25T13:12:42.719Z,34.74
2018-09-25T13:15:51.588Z,34.30
2018-09-25T13:19:00.435Z,34.62
2018-09-25T13:22:09.541Z,34.55
2018-09-25T13:25:18.984Z,34.24
2018-09-25T13:28:27.951Z,34.07
2018-09-25T13:31:37.714Z,33.97
2018-09-25T13:34:46.481Z,34.03
2018-09-25T13:37:55.413Z,33.96
2018-09-25T13:41:04.405Z,33.13
2018-09-25T13:44:14.848Z,33.94
2018-09-25T13:47:23.510Z,34.29
2018-09-25T13:50:32.210Z,33.58
2018-09-25T13:53:40.938Z,33.82
2018-09-25T13:56:49.662Z,33.33
2018-09-25T13:59:59.599Z,33.32
2018-09-25T14:03:08.635Z,32.52
2018-09-25T14:06:17.401Z,32.17
2018-09-25T14:09:27.131Z,33.02
2018-09-25T14:12:35.790Z,34.26
2018-09-25T14:15:44.704Z,33.29
2018-09-25T14:18:57.831Z,32.96
2018-09-25T14:22:06.582Z,32.81
2018-09-25T14:25:19.432Z,33.26
2018-09-25T14:28:28.380Z,32.93
2018-09-25T14:31:37.359Z,32.08
2018-09-25T14:34:47.252Z,32.42
2018-09-25T14:37:56.133Z,32.46
2018-09-25T14:41:04.987Z,31.92
2018-09-25T14:44:14.031Z,31.87
2018-09-25T14:47:22.961Z,31.06
2018-09-25T14:50:32.129Z,31.40
2018-09-25T14:53:40.986Z,31.55
2018-09-25T14:56:49.811Z,31.04
2018-09-25T14:59:58.395Z,31.53
2018-09-25T15:03:08.029Z,31.21
2018-09-25T15:06:16.808Z,30.72
2018-09-25T15:09:25.551Z,30.39
2018-09-25T15:12:34.490Z,31.64
2018-09-25T15:15:43.190Z,32.02
2018-09-25T15:18:52.034Z,31.31
2018-09-25T15:22:00.972Z,32.08
2018-09-25T15:25:09.627Z,31.70
2018-09-25T15:28:18.537Z,31.40
2018-09-25T15:31:27.440Z,31.79
2018-09-25T15:34:36.218Z,31.67
2018-09-25T15:37:45.100Z,31.04
2018-09-25T15:40:54.085Z,31.02
2018-09-25T15:44:02.977Z,31.82
2018-09-25T15:47:12.107Z,32.02
2018-09-25T15:50:21.012Z,32.19
2018-09-25T15:53:29.839Z,32.24
2018-09-25T15:56:38.592Z,31.66
2018-09-25T15:59:48.173Z,32.81
2018-09-25T16:02:57.056Z,33.27
2018-09-25T16:06:06.070Z,33.11
2018-09-25T16:09:14.939Z,33.63
2018-09-25T16:12:23.791Z,33.88
2018-09-25T16:15:32.390Z,33.53
2018-09-25T16:18:41.292Z,34.08
2018-09-25T16:21:50.150Z,34.76
2018-09-25T16:24:59.031Z,34.77
2018-09-25T16:28:07.899Z,35.64
2018-09-25T16:31:16.802Z,35.50
2018-09-25T16:34:26.161Z,35.59
2018-09-25T16:37:35.084Z,35.86
2018-09-25T16:40:43.849Z,36.09
2018-09-25T16:43:52.633Z,36.15
2018-09-25T16:47:01.523Z,36.59
2018-09-25T16:50:10.488Z,36.74
2018-09-25T16:53:19.064Z,37.40
2018-09-25T16:56:27.657Z,37.86
2018-09-25T16:59:36.453Z,37.90
2018-09-25T17:02:44.986Z,38.27
2018-09-25T17:05:53.814Z,38.53
2018-09-25T17:09:02.444Z,38.51
2018-09-25T17:12:11.362Z,39.35
2018-09-25T17:15:20.176Z,39.95
2018-09-25T17:18:28.993Z,39.79
2018-09-25T17:21:37.762Z,39.79
2018-09-25T17:24:46.543Z,40.29
2018-09-25T17:27:55.395Z,40.34
2018-09-25T17:31:04.221Z,40.38
2018-09-25T17:34:13.021Z,40.95
2018-09-25T17:37:21.872Z,41.26
2018-09-25T17:40:30.570Z,40.76
2018-09-25T17:43:39.428Z,41.22
2018-09-25T17:46:49.288Z,40.71
2018-09-25T17:49:58.060Z,40.98
2018-09-25T17:53:06.899Z,41.18
2018-09-25T17:56:15.747Z,41.57
2018-09-25T17:59:24.336Z,41.81
2018-09-25T18:02:33.198Z,42.08
2018-09-25T18:05:41.887Z,42.20
2018-09-25T18:08:50.562Z,41.83
2018-09-25T18:11:59.275Z,41.94
2018-09-25T18:15:08.004Z,42.03
2018-09-25T18:18:16.526Z,42.77
2018-09-25T18:21:25.270Z,42.09
2018-09-25T18:24:34.095Z,42.34
2018-09-25T18:27:42.889Z,42.45
2018-09-25T18:30:51.763Z,42.43
2018-09-25T18:34:00.301Z,42.77
2018-09-25T18:37:09.152Z,42.67
2018-09-25T18:40:17.969Z,42.99
2018-09-25T18:43:26.776Z,43.18
2018-09-25T18:46:35.544Z,42.64
2018-09-25T18:49:44.287Z,42.61
2018-09-25T18:52:53.949Z,43.25
2018-09-25T18:56:02.861Z,43.42
2018-09-25T18:59:11.690Z,42.90
2018-09-25T19:02:20.503Z,42.91
2018-09-25T19:05:29.133Z,44.08
2018-09-25T19:08:37.877Z,43.57
2018-09-25T19:11:46.797Z,43.75
2018-09-25T19:14:55.634Z,44.25
2018-09-25T19:18:04.445Z,43.92
2018-09-25T19:21:13.290Z,43.84
2018-09-25T19:24:22.000Z,44.26
2018-09-25T19:27:32.120Z,44.32
2018-09-25T19:30:41.653Z,44.43
2018-09-25T19:33:50.388Z,44.46
2018-09-25T19:36:59.334Z,44.98
2018-09-25T19:40:08.290Z,44.97
2018-09-25T19:43:16.997Z,45.03
2018-09-25T19:46:25.922Z,45.50
2018-09-25T19:49:34.728Z,45.58
2018-09-25T19:52:43.711Z,45.72
2018-09-25T19:55:52.365Z,45.46
2018-09-25T19:59:01.264Z,46.23
2018-09-25T20:02:10.177Z,46.63
2018-09-25T20:05:19.018Z,46.25
2018-09-25T20:08:28.013Z,46.87
2018-09-25T20:11:36.822Z,47.24
2018-09-25T20:14:45.924Z,47.33
2018-09-25T20:17:54.775Z,47.63
2018-09-25T20:21:03.646Z,47.99
2018-09-25T20:24:12.738Z,47.87
2018-09-25T20:27:21.677Z,48.29
2018-09-25T20:30:30.610Z,48.84
2018-09-25T20:33:39.571Z,48.73
2018-09-25T20:36:48.681Z,49.14
2018-09-25T20:39:57.769Z,49.25
2018-09-25T20:43:06.707Z,49.65
2018-09-25T20:46:15.364Z,49.85
2018-09-25T20:49:24.299Z,49.77
2018-09-25T20:52:33.184Z,49.97
2018-09-25T20:55:42.192Z,50.06
2018-09-25T20:58:51.085Z,50.39
2018-09-25T21:01:59.998Z,50.12
2018-09-25T21:05:08.750Z,50.42
2018-09-25T21:08:17.601Z,50.76
2018-09-25T21:11:26.404Z,51.17
2018-09-25T21:14:36.266Z,50.62
2018-09-25T21:17:45.084Z,50.96
2018-09-25T21:20:54.067Z,51.09
2018-09-25T21:24:02.983Z,51.48
2018-09-25T21:27:12.333Z,52.24
2018-09-25T21:30:21.273Z,52.23
2018-09-25T21:33:30.168Z,52.21
2018-09-25T21:36:38.982Z,52.06
2018-09-25T21:39:47.680Z,52.52
2018-09-25T21:42:56.527Z,52.99
2018-09-25T21:46:05.361Z,53.33
2018-09-25T21:49:14.077Z,53.12
2018-09-25T21:52:22.898Z,54.11
2018-09-25T21:55:31.760Z,53.64
2018-09-25T21:58:40.576Z,53.55
2018-09-25T22:01:49.378Z,53.87
2018-09-25T22:04:58.244Z,54.02
2018-09-25T22:08:07.094Z,53.46
2018-09-25T22:11:16.208Z,53.31
2018-09-25T22:14:25.139Z,54.31
2018-09-25T22:17:34.080Z,54.72
2018-09-25T22:20:42.847Z,54.76
2018-09-25T22:23:51.578Z,54.91
2018-09-25T22:27:00.359Z,54.92
2018-09-25T22:30:09.330Z,55.01
2018-09-25T22:33:18.186Z,54.95
2018-09-25T22:36:26.997Z,55.75
2018-09-25T22:39:35.858Z,55.82
2018-09-25T22:42:44.871Z,55.03
2018-09-25T22:45:53.678Z,55.40
2018-09-25T22:49:02.266Z,55.57
2018-09-25T22:52:11.132Z,56.04
2018-09-25T22:55:19.755Z,55.60
2018-09-25T22:58:28.598Z,56.21
2018-09-25T23:01:37.432Z,55.86
2018-09-25T23:04:46.353Z,55.93
2018-09-25T23:07:55.057Z,56.13
2018-09-25T23:11:03.915Z,56.75
2018-09-25T23:14:12.741Z,56.77
2018-09-25T23:17:21.457Z,56.70
2018-09-25T23:20:30.271Z,56.66
2018-09-25T23:23:39.121Z,55.81
2018-09-25T23:26:48.047Z,56.17
2018-09-25T23:29:57.061Z,56.04
2018-09-25T23:33:05.748Z,56.34
2018-09-25T23:36:14.627Z,55.74
2018-09-25T23:39:28.248Z,55.59
2018-09-25T23:42:38.723Z,55.92
2018-09-25T23:45:49.125Z,55.79
2018-09-25T23:48:57.897Z,56.07
2018-09-25T23:52:15.780Z,55.95
2018-09-25T23:55:25.184Z,55.83
2018-09-25T23:58:35.906Z,56.02
